Metar Aviation Weather Data     EGKA Shoreham Airport
Temperature
17°C Temperature
11°C Dewpoint
68% Humidity



Wind
5 MPH
8 KM/H
2 M/S
4 KTS



310°
NW
Current Conditions

Partly Cloudy Partly Cloudy
Pressure 1012.87 (hPa) - 29.91 (inHg)
Visibility 6 (mile) - 9.7 (km)
Airport
Airport-code EGKA

Location: Shoreham Airport
Distance: 9 (mi)

Metar:
EGKA 131850Z 31004KT 9999 FEW025 17/11 Q1013

Time: 13-07-2024 19:50 BST